Aviation Digital Data Service (ADDS)

Output produced by METARs form (0953 UTC 07 December 2022)
found at http://www.aviationweather.gov/metar/data/
 
KPIB 070856Z AUTO 00000KT 4SM HZ OVC005 19/ A3023 RMK AO2 SLP233 T0189 53009
KPIB 070808Z AUTO 17003KT 4SM HZ OVC005 19/ A3021 RMK AO2 CIG 003V008
KPIB 070756Z AUTO 00000KT 4SM HZ OVC007 18/ A3021 RMK AO2 CIG 003V010 SLP227 T0183
KPIB 070749Z AUTO 00000KT 2SM BR OVC007 18/ A3020 RMK AO2 CIG 002V010
KPIB 070743Z AUTO 00000KT 1SM BR SCT003 OVC009 18/ A3020 RMK AO2 RVRNO
KPIB 070734Z AUTO 17003KT 1/2SM FG SCT003 OVC009 18/ A3020 RMK AO2 RVRNO
KPIB 070728Z AUTO 00000KT 1SM BR BKN003 OVC009 18/ A3020 RMK AO2 RVRNO
KPIB 070712Z AUTO 17003KT 2SM BR BKN003 BKN012 OVC017 18/ A3020 RMK AO2
KPIB 070656Z AUTO 00000KT 1 1/2SM BR FEW003 BKN017 18/ A3020 RMK AO2 VIS 1V2 1/2 SLP223 T0178
KPIB 070645Z AUTO 15003KT 2SM BR BKN017 18/ A3019 RMK AO2 VIS 1V4
KPIB 070642Z AUTO 15003KT 1SM BR BKN017 18/ A3019 RMK AO2 VIS 1/2V4 RVRNO
KPIB 070634Z AUTO 00000KT 1/2SM FG BKN017 18/18 A3019 RMK AO2 RVRNO
KPIB 070622Z AUTO 00000KT 1/4SM FG BKN019 18/18 A3020 RMK AO2 RVRNO
KPIB 070608Z AUTO 00000KT 1/2SM FG FEW010 BKN017 18/18 A3019 RMK AO2 RVRNO
KPIB 070556Z AUTO 00000KT 3/4SM BR SCT010 BKN017 18/18 A3020 RMK AO2 SLP224 T01780178 10222 20178 402720178 51016 RVRNO
KPIB 070549Z AUTO 00000KT 1 1/2SM BR SCT010 BKN019 18/18 A3020 RMK AO2 VIS 1/2V5
KPIB 070456Z AUTO 19003KT 10SM CLR 19/19 A3018 RMK AO2 SLP219 T01940194
KPIB 070356Z AUTO 19004KT 10SM CLR 20/20 A3016 RMK AO2 SLP212 T02000200
KPIB 070256Z AUTO 18005KT 10SM FEW034 21/20 A3015 RMK AO2 SLP207 T02060200 51015
KPIB 070156Z AUTO 18005KT 10SM SCT044 21/20 A3014 RMK AO2 SLP204 T02110200
KPIB 070056Z AUTO 18005KT 10SM CLR 22/20 A3012 RMK AO2 SLP198 T02170200
KPIB 062356Z AUTO 18005KT 10SM CLR 22/19 A3011 RMK AO2 SLP193 6//// T02220194 10272 20222 53012
KPIB 062256Z AUTO 19004KT 10SM CLR 24/19 A3009 RMK AO2 SLP188 T02390189
KPIB 062156Z AUTO 20005KT 10SM FEW045 SCT050 26/18 A3008 RMK AO2 SLP183 T02560183
KPIB 062122Z AUTO VRB04KT 10SM FEW002 SCT065 27/18 A3007 RMK AO2
KPIB 062056Z AUTO 21008KT 10SM BKN040 BKN050 BKN065 26/19 A3007 RMK AO2 SLP181 T02610189 56009
KPIB 061256Z AUTO 15003KT 4SM HZ OVC012 19/ A3008 RMK AO2 RAB23E35 SLP185 P0000 T0194
KPIB 061156Z AUTO 5SM BR BKN012 OVC018 19/19 A3007 RMK AO2 SLP181 6//// 7//// T01940194 10200 20194 53010
KPIB 061056Z AUTO 17003KT 6SM BR OVC010 19/19 A3005 RMK AO2 SLP175 T01940194
KPIB 060956Z AUTO 00000KT 9SM SCT009 BKN014 OVC041 19/19 A3004 RMK AO2 RAB26E48 SLP172 P0000 T01940194
KPIB 060856Z AUTO 19004KT 10SM BKN007 OVC011 20/20 A3004 RMK AO2 CIG 006V011 SLP171 T02000200 53003
KPIB 060756Z AUTO 19003KT 10SM OVC007 20/20 A3004 RMK AO2 SLP170 T02000200
KPIB 060656Z AUTO 18005KT 9SM BKN009 OVC017 20/20 A3003 RMK AO2 CIG 006V012 SLP168 T02000200
KPIB 060642Z AUTO 19004KT 9SM BKN009 OVC013 20/20 A3003 RMK AO2 CIG 007V011
KPIB 060556Z AUTO 19004KT 10SM OVC011 20/19 A3003 RMK AO2 CIG 009V013 SLP168 6//// T02000194 10206 20200 402220150 53005
KPIB 060506Z AUTO 19006KT 10SM OVC011 21/20 A3003 RMK AO2
KPIB 060456Z AUTO 18005KT 10SM OVC009 21/20 A3003 RMK AO2 CIG 008V012 SLP167 T02060200
KPIB 060356Z AUTO 18005KT 10SM OVC009 20/20 A3002 RMK AO2 CIG 008V015 SLP163 T02000200
KPIB 060256Z AUTO 17007KT 10SM OVC009 20/20 A3002 RMK AO2 CIG 008V012 SLP163 6//// T02000200 50004
KPIB 060213Z AUTO 17006KT 10SM OVC009 20/20 A3003 RMK AO2
KPIB 060156Z AUTO 17004KT 10SM OVC011 20/20 A3003 RMK AO2 SLP167 T02000200
KPIB 060135Z AUTO 17006KT 10SM OVC013 20/20 A3002 RMK AO2
KPIB 060056Z AUTO 17005KT 10SM OVC017 20/20 A3002 RMK AO2 SLP165 T02000200
KPIB 060030Z AUTO 16006KT 10SM SCT019 BKN024 OVC030 20/20 A3002 RMK AO2
KPIB 052356Z AUTO 16005KT 10SM BKN031 OVC080 20/19 A3001 RMK AO2 SLP160 T02000194 10222 20200 53006
KPIB 052342Z AUTO 15006KT 10SM SCT028 BKN033 OVC080 20/19 A3000 RMK AO2
KPIB 052320Z AUTO 16005KT 10SM BKN025 BKN033 OVC080 21/19 A3000 RMK AO2
KPIB 052311Z AUTO 18004KT 10SM FEW021 BKN033 OVC075 21/19 A3000 RMK AO2
KPIB 052256Z AUTO 18004KT 10SM BKN023 BKN031 OVC070 21/19 A3000 RMK AO2 SLP156 T02110194
KPIB 052235Z AUTO VRB04KT 10SM FEW017 BKN023 OVC075 21/19 A3000 RMK AO2
KPIB 052156Z AUTO 18008KT 10SM FEW021 BKN070 BKN080 22/19 A2999 RMK AO2 SLP154 T02220189
KPIB 052056Z AUTO 19007KT 10SM OVC075 22/18 A2999 RMK AO2 SLP153 T02220183 56016
KPIB 051956Z AUTO 22004KT 10SM OVC075 22/18 A3000 RMK AO2 SLP157 T02220183
KPIB 051856Z AUTO VRB04KT 10SM OVC070 21/18 A3001 RMK AO2 SLP163 T02110178
KPIB 051756Z AUTO 18007KT 10SM 22/18 A3004 RMK AO2 SLP170 6//// T02170178 10217 20156 58019
KPIB 051656Z AUTO 18007KT 10SM OVC065 21/17 A3006 RMK AO2 SLP180 T02060172
KPIB 051556Z AUTO 20006KT 10SM SCT010 SCT060 19/17 A3009 RMK AO2 SLP187 T01890172
KPIB 051529Z AUTO 20004KT 10SM OVC010 18/17 A3010 RMK AO2 CIG 007V011
KPIB 051456Z AUTO VRB05KT 9SM OVC006 18/18 A3009 RMK AO2 SLP189 60000 T01780178 51012
KPIB 051356Z AUTO 00000KT 4SM HZ OVC006 17/ A3009 RMK AO2 SLP188 T0167
KPIB 051256Z AUTO VRB04KT 4SM HZ OVC006 17/ A3007 RMK AO2 RAE04 CIG 005V009 SLP183 P0000 T0167
KPIB 051249Z AUTO 20004KT 3SM BR OVC006 17/ A3007 RMK AO2 RAE04 CIG 003V010 P0000
KPIB 051241Z AUTO 21004KT 1 1/4SM BR OVC006 16/ A3007 RMK AO2 VIS 1V2 RAE04 CIG 003V008 P0000
KPIB 051231Z AUTO 17003KT 1 1/4SM BR OVC004 16/ A3006 RMK AO2 RAE04 CIG 003V009 P0000
KPIB 051223Z AUTO 00000KT 3/4SM BR OVC004 16/ A3006 RMK AO2 RAE04 CIG 003V007 P0000 RVRNO
KPIB 051208Z AUTO 00000KT 1/2SM FG OVC002 16/ A3006 RMK AO2 RAE04 P0000 RVRNO
KPIB 051156Z AUTO 00000KT 1/4SM -RA OVC002 16/ A3006 RMK AO2 SLP178 P0000 6//// 7//// T0156 10156 20150 56006 RVRNO
KPIB 051056Z AUTO 00000KT 1/4SM -RA OVC002 15/ A3006 RMK AO2 RAB56 SLP178 P0000 T0150 RVRNO
KPIB 050956Z AUTO 14003KT 1/4SM FG OVC002 15/ A3007 RMK AO2 RAB26E39 SLP180 T0150 RVRNO
KPIB 050856Z AUTO 13003KT 1/4SM FG OVC002 16/16 A3008 RMK AO2 SLP184 6//// T01560156 56015 RVRNO
KPIB 050833Z AUTO 00000KT 1/4SM FG OVC002 16/16 A3008 RMK AO2 RVRNO
KPIB 050819Z AUTO 18004KT 1/2SM FG OVC002 16/16 A3008 RMK AO2 RVRNO
KPIB 050815Z AUTO 17004KT 1SM BR OVC002 16/16 A3008 RMK AO2 RVRNO
KPIB 050803Z AUTO 16004KT 2 1/2SM BR OVC002 16/16 A3008 RMK AO2
KPIB 050756Z AUTO 18004KT 4SM BR OVC004 16/16 A3008 RMK AO2 SLP186 T01560156
KPIB 050728Z AUTO 16005KT 9SM OVC004 15/15 A3009 RMK AO2
KPIB 050656Z AUTO 17003KT 9SM OVC008 15/15 A3010 RMK AO2 SLP191 T01500150
KPIB 050636Z AUTO 16003KT 10SM OVC008 15/15 A3010 RMK AO2
KPIB 050556Z AUTO 00000KT 10SM OVC012 15/15 A3012 RMK AO2 SLP200 6//// T01500150 10156 20122 401890122 56017
KPIB 050538Z AUTO 17003KT 10SM OVC014 15/15 A3013 RMK AO2
KPIB 050456Z AUTO 16004KT 10SM OVC019 15/15 A3013 RMK AO2 SLP203 T01500150
KPIB 050356Z AUTO 00000KT 9SM BKN019 OVC024 15/15 A3015 RMK AO2 SLP209 T01500150
KPIB 050256Z AUTO 00000KT 10SM BKN020 OVC028 14/14 A3017 RMK AO2 SLP216 6//// T01440144 53003
KPIB 050243Z AUTO 00000KT 8SM BKN020 OVC030 14/14 A3018 RMK AO2
KPIB 050156Z AUTO 00000KT 5SM BR CLR 13/13 A3015 RMK AO2 SLP211 T01280128
KPIB 050056Z AUTO 00000KT 9SM CLR 14/14 A3016 RMK AO2 SLP213 T01390139
KPIB 042356Z AUTO 00000KT 10SM BKN060 15/15 A3016 RMK AO2 SLP213 T01500150 10189 20150 58004
KPIB 042256Z AUTO 00000KT 10SM OVC060 17/15 A3017 RMK AO2 SLP214 T01720150
KPIB 042231Z AUTO 00000KT 10SM SCT025 BKN060 18/14 A3017 RMK AO2
KPIB 042156Z AUTO 01003KT 10SM BKN025 19/15 A3017 RMK AO2 SLP216 T01890150
KPIB 042151Z AUTO 03003KT 10SM BKN023 19/15 A3017 RMK AO2
KPIB 042123Z AUTO 00000KT 10SM SCT025 19/14 A3018 RMK AO2
KPIB 042056Z AUTO 00000KT 10SM FEW012 BKN025 18/14 A3018 RMK AO2 SLP218 T01830144 56014
KPIB 042054Z AUTO 00000KT 10SM SCT012 BKN025 18/14 A3018 RMK AO2
KPIB 041956Z AUTO 36003KT 10SM BKN012 OVC055 18/14 A3020 RMK AO2 SLP226 T01780144
KPIB 041918Z AUTO VRB03KT 10SM SCT012 OVC055 17/14 A3021 RMK AO2
KPIB 041856Z AUTO 02003KT 10SM OVC014 17/14 A3022 RMK AO2 SLP232 T01720139
KPIB 041846Z AUTO 36006KT 10SM BKN014 OVC050 17/14 A3023 RMK AO2
KPIB 041756Z AUTO 33003KT 10SM OVC048 16/13 A3025 RMK AO2 SLP243 6//// T01560133 10156 20128 58020
KPIB 041656Z AUTO 00000KT 10SM OVC044 15/13 A3029 RMK AO2 SLP255 T01500128
KPIB 041556Z AUTO 00000KT 10SM OVC044 14/13 A3030 RMK AO2 SLP261 T01390128
KPIB 041456Z AUTO 01003KT 10SM OVC044 13/12 A3031 RMK AO2 SLP263 6//// T01330122 52011
KPIB 041356Z AUTO 36006KT 10SM FEW032 OVC044 13/12 A3030 RMK AO2 SLP261 T01280122
KPIB 041304Z AUTO 02005KT 10SM SCT006 SCT021 OVC044 13/13 A3029 RMK AO2
KPIB 041256Z AUTO 01005KT 10SM BKN006 OVC046 13/13 A3029 RMK AO2 CIG 005V009 SLP255 T01280128
KPIB 041237Z AUTO 02004KT 10SM BKN006 OVC044 13/13 A3028 RMK AO2 CIG 004V009
KPIB 041156Z AUTO 36005KT 9SM OVC003 14/14 A3028 RMK AO2 SLP252 6//// 7//// T01390139 10167 20139 53004
KPIB 041056Z AUTO 35005KT 8SM OVC003 14/14 A3026 RMK AO2 SLP247 T01440144
KPIB 040956Z AUTO 36006KT 8SM OVC003 15/15 A3026 RMK AO2 SLP244 T01500150
KPIB 070912Z 0709/0806 00000KT 3SM BR OVC005 
     FM071100 00000KT 3/4SM BR OVC002 
     TEMPO 0711/0713 1/2SM FG OVC001 
     FM071400 20003KT P6SM OVC007 
     FM071600 19004KT P6SM BKN015 
     FM072000 21006KT P6SM SCT060